METAR Data
IDs: Format: Raw Decoded Include TAF

Data at: 0147 UTC 29 May 2022

LEBB 290130Z AUTO 07002KT CAVOK 12/12 Q1013